sensor_id;sensor_type;location;lat;lon;timestamp;temperature;humidity
22706;DHT22;11520;51.198;4.468;2022-12-18T00:00:47;-2.60;99.90
22706;DHT22;11520;51.198;4.468;2022-12-18T00:03:14;-2.70;99.90
22706;DHT22;11520;51.198;4.468;2022-12-18T00:05:50;-2.70;99.90
22706;DHT22;11520;51.198;4.468;2022-12-18T00:08:19;-2.70;99.90
22706;DHT22;11520;51.198;4.468;2022-12-18T00:10:45;-2.70;99.90
22706;DHT22;11520;51.198;4.468;2022-12-18T00:13:11;-2.70;99.90
22706;DHT22;11520;51.198;4.468;2022-12-18T00:15:38;-2.70;99.90
22706;DHT22;11520;51.198;4.468;2022-12-18T00:18:05;-2.70;99.90
22706;DHT22;11520;51.198;4.468;2022-12-18T00:20:32;-2.70;99.90
22706;DHT22;11520;51.198;4.468;2022-12-18T00:23:00;-2.70;99.90
22706;DHT22;11520;51.198;4.468;2022-12-18T00:25:26;-2.70;99.90
22706;DHT22;11520;51.198;4.468;2022-12-18T00:27:52;-2.70;99.90
22706;DHT22;11520;51.198;4.468;2022-12-18T00:30:18;-2.70;99.90
22706;DHT22;11520;51.198;4.468;2022-12-18T00:32:43;-2.70;99.90
22706;DHT22;11520;51.198;4.468;2022-12-18T00:35:09;-2.70;99.90
22706;DHT22;11520;51.198;4.468;2022-12-18T00:37:37;-2.80;99.90
22706;DHT22;11520;51.198;4.468;2022-12-18T00:40:03;-2.80;99.90
22706;DHT22;11520;51.198;4.468;2022-12-18T00:42:28;-2.80;99.90
22706;DHT22;11520;51.198;4.468;2022-12-18T00:45:14;-2.90;99.90
22706;DHT22;11520;51.198;4.468;2022-12-18T00:47:40;-3.00;99.90
22706;DHT22;11520;51.198;4.468;2022-12-18T00:50:06;-3.00;99.90
22706;DHT22;11520;51.198;4.468;2022-12-18T00:52:32;-3.00;99.90
22706;DHT22;11520;51.198;4.468;2022-12-18T00:54:58;-2.90;99.90
22706;DHT22;11520;51.198;4.468;2022-12-18T00:57:24;-3.00;99.90
22706;DHT22;11520;51.198;4.468;2022-12-18T00:59:50;-3.10;99.90
22706;DHT22;11520;51.198;4.468;2022-12-18T01:02:16;-3.10;99.90
22706;DHT22;11520;51.198;4.468;2022-12-18T01:04:43;-3.20;99.90
22706;DHT22;11520;51.198;4.468;2022-12-18T01:07:09;-3.10;99.90
22706;DHT22;11520;51.198;4.468;2022-12-18T01:09:36;-3.20;99.90
22706;DHT22;11520;51.198;4.468;2022-12-18T01:12:01;-3.20;99.90
22706;DHT22;11520;51.198;4.468;2022-12-18T01:14:27;-3.20;99.90
22706;DHT22;11520;51.198;4.468;2022-12-18T01:16:52;-3.20;99.90
22706;DHT22;11520;51.198;4.468;2022-12-18T01:19:18;-3.20;99.90
22706;DHT22;11520;51.198;4.468;2022-12-18T01:21:43;-3.10;99.90
22706;DHT22;11520;51.198;4.468;2022-12-18T01:24:11;-3.10;99.90
22706;DHT22;11520;51.198;4.468;2022-12-18T01:26:39;-3.10;99.90
22706;DHT22;11520;51.198;4.468;2022-12-18T01:29:06;-3.10;99.90
22706;DHT22;11520;51.198;4.468;2022-12-18T01:31:34;-3.10;99.90
22706;DHT22;11520;51.198;4.468;2022-12-18T01:34:03;-3.20;99.90
22706;DHT22;11520;51.198;4.468;2022-12-18T01:36:31;-3.20;99.90
22706;DHT22;11520;51.198;4.468;2022-12-18T01:39:00;-3.30;99.90
22706;DHT22;11520;51.198;4.468;2022-12-18T01:41:28;-3.30;99.90
22706;DHT22;11520;51.198;4.468;2022-12-18T01:50:12;-3.80;99.90
22706;DHT22;11520;51.198;4.468;2022-12-18T01:52:42;-3.80;99.90
22706;DHT22;11520;51.198;4.468;2022-12-18T01:55:10;-3.80;99.90
22706;DHT22;11520;51.198;4.468;2022-12-18T01:57:37;-3.80;99.90
22706;DHT22;11520;51.198;4.468;2022-12-18T02:00:23;-3.70;99.90
22706;DHT22;11520;51.198;4.468;2022-12-18T02:02:49;-3.70;99.90
22706;DHT22;11520;51.198;4.468;2022-12-18T02:05:29;-3.70;99.90
22706;DHT22;11520;51.198;4.468;2022-12-18T02:08:12;-3.60;99.90
22706;DHT22;11520;51.198;4.468;2022-12-18T02:19:01;-3.50;99.90
22706;DHT22;11520;51.198;4.468;2022-12-18T02:24:24;-3.50;99.90
22706;DHT22;11520;51.198;4.468;2022-12-18T02:26:58;-3.50;99.90
22706;DHT22;11520;51.198;4.468;2022-12-18T02:29:31;-3.50;99.90
22706;DHT22;11520;51.198;4.468;2022-12-18T02:32:00;-3.50;99.90
22706;DHT22;11520;51.198;4.468;2022-12-18T02:34:30;-3.50;99.90
22706;DHT22;11520;51.198;4.468;2022-12-18T02:36:58;-3.40;99.90
22706;DHT22;11520;51.198;4.468;2022-12-18T02:39:26;-3.50;99.90
22706;DHT22;11520;51.198;4.468;2022-12-18T02:41:57;-3.50;99.90
22706;DHT22;11520;51.198;4.468;2022-12-18T02:44:23;-3.50;99.90
22706;DHT22;11520;51.198;4.468;2022-12-18T02:46:52;-3.50;99.90
22706;DHT22;11520;51.198;4.468;2022-12-18T02:49:43;-3.50;99.90
22706;DHT22;11520;51.198;4.468;2022-12-18T02:57:45;-3.60;99.90
22706;DHT22;11520;51.198;4.468;2022-12-18T03:00:45;-3.60;99.90
22706;DHT22;11520;51.198;4.468;2022-12-18T03:03:27;-3.60;99.90
22706;DHT22;11520;51.198;4.468;2022-12-18T03:06:12;-3.50;99.90
22706;DHT22;11520;51.198;4.468;2022-12-18T03:08:44;-3.50;99.90
22706;DHT22;11520;51.198;4.468;2022-12-18T03:11:14;-3.50;99.90
22706;DHT22;11520;51.198;4.468;2022-12-18T03:13:51;-3.60;99.90
22706;DHT22;11520;51.198;4.468;2022-12-18T03:16:26;-3.70;99.90
22706;DHT22;11520;51.198;4.468;2022-12-18T03:19:24;-3.70;99.90
22706;DHT22;11520;51.198;4.468;2022-12-18T03:21:54;-3.70;99.90
22706;DHT22;11520;51.198;4.468;2022-12-18T03:24:21;-3.70;99.90
22706;DHT22;11520;51.198;4.468;2022-12-18T03:26:52;-3.80;99.90
22706;DHT22;11520;51.198;4.468;2022-12-18T03:30:06;-3.80;99.90
22706;DHT22;11520;51.198;4.468;2022-12-18T03:32:20;-3.70;99.90
22706;DHT22;11520;51.198;4.468;2022-12-18T03:34:50;-3.60;99.90
22706;DHT22;11520;51.198;4.468;2022-12-18T03:37:17;-3.60;99.90
22706;DHT22;11520;51.198;4.468;2022-12-18T03:39:42;-3.80;99.90
22706;DHT22;11520;51.198;4.468;2022-12-18T03:42:32;-3.80;99.90
22706;DHT22;11520;51.198;4.468;2022-12-18T03:45:16;-3.70;99.90
22706;DHT22;11520;51.198;4.468;2022-12-18T03:47:51;-3.60;99.90
22706;DHT22;11520;51.198;4.468;2022-12-18T03:50:24;-3.60;99.90
22706;DHT22;11520;51.198;4.468;2022-12-18T03:55:55;-3.70;99.90
22706;DHT22;11520;51.198;4.468;2022-12-18T03:58:25;-3.80;99.90
22706;DHT22;11520;51.198;4.468;2022-12-18T04:00:53;-3.70;99.90
22706;DHT22;11520;51.198;4.468;2022-12-18T04:03:23;-3.70;99.90
22706;DHT22;11520;51.198;4.468;2022-12-18T04:05:51;-3.70;99.90
22706;DHT22;11520;51.198;4.468;2022-12-18T04:08:17;-3.70;99.90
22706;DHT22;11520;51.198;4.468;2022-12-18T04:10:47;-3.70;99.90
22706;DHT22;11520;51.198;4.468;2022-12-18T04:13:22;-3.80;99.90
22706;DHT22;11520;51.198;4.468;2022-12-18T04:15:47;-3.80;99.90
22706;DHT22;11520;51.198;4.468;2022-12-18T04:18:15;-3.80;99.90
22706;DHT22;11520;51.198;4.468;2022-12-18T04:20:40;-3.80;99.90
22706;DHT22;11520;51.198;4.468;2022-12-18T04:23:07;-3.80;99.90
22706;DHT22;11520;51.198;4.468;2022-12-18T04:25:33;-3.80;99.90
22706;DHT22;11520;51.198;4.468;2022-12-18T04:27:58;-3.80;99.90
22706;DHT22;11520;51.198;4.468;2022-12-18T04:30:25;-3.80;99.90
22706;DHT22;11520;51.198;4.468;2022-12-18T04:32:57;-3.70;99.90
22706;DHT22;11520;51.198;4.468;2022-12-18T04:35:24;-3.80;99.90
22706;DHT22;11520;51.198;4.468;2022-12-18T04:37:51;-3.70;99.90
22706;DHT22;11520;51.198;4.468;2022-12-18T04:40:18;-3.70;99.90
22706;DHT22;11520;51.198;4.468;2022-12-18T04:42:47;-3.70;99.90
22706;DHT22;11520;51.198;4.468;2022-12-18T04:45:12;-3.70;99.90
22706;DHT22;11520;51.198;4.468;2022-12-18T04:47:38;-3.70;99.90
22706;DHT22;11520;51.198;4.468;2022-12-18T04:50:04;-3.60;99.90
22706;DHT22;11520;51.198;4.468;2022-12-18T04:52:30;-3.60;99.90
22706;DHT22;11520;51.198;4.468;2022-12-18T04:54:56;-3.60;99.90
22706;DHT22;11520;51.198;4.468;2022-12-18T04:57:22;-3.60;99.90
22706;DHT22;11520;51.198;4.468;2022-12-18T04:59:49;-3.60;99.90
22706;DHT22;11520;51.198;4.468;2022-12-18T05:02:30;-3.70;99.90
22706;DHT22;11520;51.198;4.468;2022-12-18T05:04:56;-3.90;99.90
22706;DHT22;11520;51.198;4.468;2022-12-18T05:07:23;-4.00;99.90
22706;DHT22;11520;51.198;4.468;2022-12-18T05:09:51;-4.10;99.90
22706;DHT22;11520;51.198;4.468;2022-12-18T05:12:17;-4.00;99.90
22706;DHT22;11520;51.198;4.468;2022-12-18T05:14:43;-4.00;99.90
22706;DHT22;11520;51.198;4.468;2022-12-18T05:17:08;-4.00;99.90
22706;DHT22;11520;51.198;4.468;2022-12-18T05:19:34;-4.00;99.90
22706;DHT22;11520;51.198;4.468;2022-12-18T05:22:01;-4.00;99.90
22706;DHT22;11520;51.198;4.468;2022-12-18T05:24:27;-4.00;99.90
22706;DHT22;11520;51.198;4.468;2022-12-18T05:26:53;-4.10;99.90
22706;DHT22;11520;51.198;4.468;2022-12-18T05:29:18;-4.00;99.90
22706;DHT22;11520;51.198;4.468;2022-12-18T05:31:46;-4.00;99.90
22706;DHT22;11520;51.198;4.468;2022-12-18T05:34:11;-4.10;99.90
22706;DHT22;11520;51.198;4.468;2022-12-18T05:36:38;-3.90;99.90
22706;DHT22;11520;51.198;4.468;2022-12-18T05:39:06;-3.90;99.90
22706;DHT22;11520;51.198;4.468;2022-12-18T05:41:33;-3.90;99.90
22706;DHT22;11520;51.198;4.468;2022-12-18T05:43:59;-3.90;99.90
22706;DHT22;11520;51.198;4.468;2022-12-18T05:46:24;-4.00;99.90
22706;DHT22;11520;51.198;4.468;2022-12-18T05:48:50;-4.00;99.90
22706;DHT22;11520;51.198;4.468;2022-12-18T05:51:19;-4.00;99.90
22706;DHT22;11520;51.198;4.468;2022-12-18T05:53:46;-4.00;99.90
22706;DHT22;11520;51.198;4.468;2022-12-18T05:56:18;-4.10;99.90
22706;DHT22;11520;51.198;4.468;2022-12-18T05:58:45;-4.10;99.90
22706;DHT22;11520;51.198;4.468;2022-12-18T06:03:39;-4.10;99.90
22706;DHT22;11520;51.198;4.468;2022-12-18T06:06:13;-4.00;99.90
22706;DHT22;11520;51.198;4.468;2022-12-18T06:08:41;-4.00;99.90
22706;DHT22;11520;51.198;4.468;2022-12-18T06:11:07;-4.10;99.90
22706;DHT22;11520;51.198;4.468;2022-12-18T06:13:33;-4.00;99.90
22706;DHT22;11520;51.198;4.468;2022-12-18T06:16:03;-4.00;99.90
22706;DHT22;11520;51.198;4.468;2022-12-18T06:18:29;-4.10;99.90
22706;DHT22;11520;51.198;4.468;2022-12-18T06:20:55;-4.00;99.90
22706;DHT22;11520;51.198;4.468;2022-12-18T06:23:22;-4.00;99.90
22706;DHT22;11520;51.198;4.468;2022-12-18T06:25:49;-4.10;99.90
22706;DHT22;11520;51.198;4.468;2022-12-18T06:28:15;-4.20;99.90
22706;DHT22;11520;51.198;4.468;2022-12-18T06:30:43;-4.30;99.90
22706;DHT22;11520;51.198;4.468;2022-12-18T06:33:09;-4.20;99.90
22706;DHT22;11520;51.198;4.468;2022-12-18T06:35:35;-4.20;99.90
22706;DHT22;11520;51.198;4.468;2022-12-18T06:38:02;-4.10;99.90
22706;DHT22;11520;51.198;4.468;2022-12-18T06:40:28;-4.20;99.90
22706;DHT22;11520;51.198;4.468;2022-12-18T06:43:02;-4.30;99.90
22706;DHT22;11520;51.198;4.468;2022-12-18T06:45:30;-4.20;99.90
22706;DHT22;11520;51.198;4.468;2022-12-18T06:47:57;-4.20;99.90
22706;DHT22;11520;51.198;4.468;2022-12-18T06:50:23;-4.20;99.90
22706;DHT22;11520;51.198;4.468;2022-12-18T06:52:50;-4.10;99.90
22706;DHT22;11520;51.198;4.468;2022-12-18T06:55:16;-4.10;99.90
22706;DHT22;11520;51.198;4.468;2022-12-18T06:57:42;-4.10;99.90
22706;DHT22;11520;51.198;4.468;2022-12-18T07:00:08;-4.00;99.90
22706;DHT22;11520;51.198;4.468;2022-12-18T07:02:35;-4.10;99.90
22706;DHT22;11520;51.198;4.468;2022-12-18T07:05:01;-4.10;99.90
22706;DHT22;11520;51.198;4.468;2022-12-18T07:07:27;-4.20;99.90
22706;DHT22;11520;51.198;4.468;2022-12-18T07:09:52;-4.30;99.90
22706;DHT22;11520;51.198;4.468;2022-12-18T07:12:20;-4.50;99.90
22706;DHT22;11520;51.198;4.468;2022-12-18T07:14:49;-4.50;99.90
22706;DHT22;11520;51.198;4.468;2022-12-18T07:17:14;-4.40;99.90
22706;DHT22;11520;51.198;4.468;2022-12-18T07:19:42;-4.50;99.90
22706;DHT22;11520;51.198;4.468;2022-12-18T07:22:09;-4.50;99.90
22706;DHT22;11520;51.198;4.468;2022-12-18T07:24:34;-4.50;99.90
22706;DHT22;11520;51.198;4.468;2022-12-18T07:27:01;-4.60;99.90
22706;DHT22;11520;51.198;4.468;2022-12-18T07:29:26;-4.50;99.90
22706;DHT22;11520;51.198;4.468;2022-12-18T07:31:53;-4.50;99.90
22706;DHT22;11520;51.198;4.468;2022-12-18T07:34:19;-4.50;99.90
22706;DHT22;11520;51.198;4.468;2022-12-18T07:36:44;-4.40;99.90
22706;DHT22;11520;51.198;4.468;2022-12-18T07:39:13;-4.20;99.90
22706;DHT22;11520;51.198;4.468;2022-12-18T07:41:41;-4.30;99.90
22706;DHT22;11520;51.198;4.468;2022-12-18T07:44:14;-4.40;99.90
22706;DHT22;11520;51.198;4.468;2022-12-18T07:46:40;-4.50;99.90
22706;DHT22;11520;51.198;4.468;2022-12-18T07:49:06;-4.50;99.90
22706;DHT22;11520;51.198;4.468;2022-12-18T07:51:32;-4.40;99.90
22706;DHT22;11520;51.198;4.468;2022-12-18T07:53:58;-4.30;99.90
22706;DHT22;11520;51.198;4.468;2022-12-18T07:56:24;-4.20;99.90
22706;DHT22;11520;51.198;4.468;2022-12-18T07:58:51;-4.20;99.90
22706;DHT22;11520;51.198;4.468;2022-12-18T08:01:18;-4.20;99.90
22706;DHT22;11520;51.198;4.468;2022-12-18T08:03:45;-4.20;99.90
22706;DHT22;11520;51.198;4.468;2022-12-18T08:06:14;-4.00;99.90
22706;DHT22;11520;51.198;4.468;2022-12-18T08:08:41;-3.90;99.90
22706;DHT22;11520;51.198;4.468;2022-12-18T08:11:10;-3.90;99.90
22706;DHT22;11520;51.198;4.468;2022-12-18T08:13:36;-3.90;99.90
22706;DHT22;11520;51.198;4.468;2022-12-18T08:16:06;-3.70;99.90
22706;DHT22;11520;51.198;4.468;2022-12-18T08:18:35;-3.80;99.90
22706;DHT22;11520;51.198;4.468;2022-12-18T08:21:13;-3.70;99.90
22706;DHT22;11520;51.198;4.468;2022-12-18T08:23:41;-3.60;99.90
22706;DHT22;11520;51.198;4.468;2022-12-18T08:26:07;-3.50;99.90
22706;DHT22;11520;51.198;4.468;2022-12-18T08:28:34;-3.50;99.90
22706;DHT22;11520;51.198;4.468;2022-12-18T08:31:10;-3.40;99.90
22706;DHT22;11520;51.198;4.468;2022-12-18T08:33:37;-3.30;99.90
22706;DHT22;11520;51.198;4.468;2022-12-18T08:36:04;-3.30;99.90
22706;DHT22;11520;51.198;4.468;2022-12-18T08:38:32;-3.10;99.90
22706;DHT22;11520;51.198;4.468;2022-12-18T08:40:59;-3.10;99.90
22706;DHT22;11520;51.198;4.468;2022-12-18T08:43:26;-2.80;99.90
22706;DHT22;11520;51.198;4.468;2022-12-18T08:46:11;-2.80;99.90
22706;DHT22;11520;51.198;4.468;2022-12-18T08:48:36;-2.80;99.90
22706;DHT22;11520;51.198;4.468;2022-12-18T08:51:02;-2.80;99.90
22706;DHT22;11520;51.198;4.468;2022-12-18T08:53:28;-2.80;99.90
22706;DHT22;11520;51.198;4.468;2022-12-18T08:55:56;-2.80;99.90
22706;DHT22;11520;51.198;4.468;2022-12-18T08:58:22;-2.70;99.90
22706;DHT22;11520;51.198;4.468;2022-12-18T09:00:48;-2.60;99.90
22706;DHT22;11520;51.198;4.468;2022-12-18T09:03:15;-2.40;99.90
22706;DHT22;11520;51.198;4.468;2022-12-18T09:05:41;-2.60;99.90
22706;DHT22;11520;51.198;4.468;2022-12-18T09:08:07;-2.80;99.90
22706;DHT22;11520;51.198;4.468;2022-12-18T09:10:40;-2.70;99.90
22706;DHT22;11520;51.198;4.468;2022-12-18T09:13:06;-2.60;99.90
22706;DHT22;11520;51.198;4.468;2022-12-18T09:15:33;-2.50;99.90
22706;DHT22;11520;51.198;4.468;2022-12-18T09:17:58;-2.20;99.90
22706;DHT22;11520;51.198;4.468;2022-12-18T09:20:24;-2.00;99.90
22706;DHT22;11520;51.198;4.468;2022-12-18T09:22:50;-2.00;99.90
22706;DHT22;11520;51.198;4.468;2022-12-18T09:25:17;-1.80;99.90
22706;DHT22;11520;51.198;4.468;2022-12-18T09:27:43;-1.70;99.90
22706;DHT22;11520;51.198;4.468;2022-12-18T09:30:12;-1.70;99.90
22706;DHT22;11520;51.198;4.468;2022-12-18T09:32:37;-1.60;99.90
22706;DHT22;11520;51.198;4.468;2022-12-18T09:35:04;-1.40;99.90
22706;DHT22;11520;51.198;4.468;2022-12-18T09:37:30;-1.10;99.90
22706;DHT22;11520;51.198;4.468;2022-12-18T09:39:56;-1.10;99.90
22706;DHT22;11520;51.198;4.468;2022-12-18T09:42:22;-1.40;99.90
22706;DHT22;11520;51.198;4.468;2022-12-18T09:44:53;-1.50;99.90
22706;DHT22;11520;51.198;4.468;2022-12-18T09:47:23;-1.50;99.90
22706;DHT22;11520;51.198;4.468;2022-12-18T09:49:53;-1.50;99.90
22706;DHT22;11520;51.198;4.468;2022-12-18T09:57:53;-1.40;99.90
22706;DHT22;11520;51.198;4.468;2022-12-18T10:00:23;-1.60;99.90
22706;DHT22;11520;51.198;4.468;2022-12-18T10:02:52;-1.60;99.90
22706;DHT22;11520;51.198;4.468;2022-12-18T10:08:13;-1.10;99.90
22706;DHT22;11520;51.198;4.468;2022-12-18T10:13:38;-1.10;99.90
22706;DHT22;11520;51.198;4.468;2022-12-18T10:16:16;-1.10;99.90
22706;DHT22;11520;51.198;4.468;2022-12-18T10:18:55;-0.90;99.90
22706;DHT22;11520;51.198;4.468;2022-12-18T10:21:37;-0.80;99.90
22706;DHT22;11520;51.198;4.468;2022-12-18T10:24:35;-0.50;99.90
22706;DHT22;11520;51.198;4.468;2022-12-18T10:27:18;-0.30;99.90
22706;DHT22;11520;51.198;4.468;2022-12-18T10:29:47;-0.20;99.90
22706;DHT22;11520;51.198;4.468;2022-12-18T10:32:18;-0.10;99.90
22706;DHT22;11520;51.198;4.468;2022-12-18T10:34:49;-0.40;99.90
22706;DHT22;11520;51.198;4.468;2022-12-18T10:37:19;-0.40;99.90
22706;DHT22;11520;51.198;4.468;2022-12-18T10:40:07;-0.20;99.90
22706;DHT22;11520;51.198;4.468;2022-12-18T10:42:35;-0.20;99.90
22706;DHT22;11520;51.198;4.468;2022-12-18T10:45:12;-0.10;99.90
22706;DHT22;11520;51.198;4.468;2022-12-18T10:47:48;0.00;99.90
22706;DHT22;11520;51.198;4.468;2022-12-18T10:50:35;0.10;99.90
22706;DHT22;11520;51.198;4.468;2022-12-18T10:53:18;-0.20;99.90
22706;DHT22;11520;51.198;4.468;2022-12-18T10:55:46;-0.10;99.90
22706;DHT22;11520;51.198;4.468;2022-12-18T10:58:34;-0.20;99.90
22706;DHT22;11520;51.198;4.468;2022-12-18T11:03:45;0.00;99.90
22706;DHT22;11520;51.198;4.468;2022-12-18T11:06:24;0.00;99.90
22706;DHT22;11520;51.198;4.468;2022-12-18T11:09:20;-0.30;99.90
22706;DHT22;11520;51.198;4.468;2022-12-18T11:11:58;-0.40;99.90
22706;DHT22;11520;51.198;4.468;2022-12-18T11:14:43;-0.10;99.90
22706;DHT22;11520;51.198;4.468;2022-12-18T11:17:34;0.20;99.90
22706;DHT22;11520;51.198;4.468;2022-12-18T11:20:31;-0.10;99.90
22706;DHT22;11520;51.198;4.468;2022-12-18T11:23:06;0.00;99.90
22706;DHT22;11520;51.198;4.468;2022-12-18T11:25:36;-0.10;99.90
22706;DHT22;11520;51.198;4.468;2022-12-18T11:28:05;0.00;99.90
22706;DHT22;11520;51.198;4.468;2022-12-18T11:30:36;0.10;99.90
22706;DHT22;11520;51.198;4.468;2022-12-18T11:33:09;-0.10;99.90
22706;DHT22;11520;51.198;4.468;2022-12-18T11:35:55;-0.20;99.90
22706;DHT22;11520;51.198;4.468;2022-12-18T11:38:35;-0.10;99.90
22706;DHT22;11520;51.198;4.468;2022-12-18T11:41:23;0.10;99.90
22706;DHT22;11520;51.198;4.468;2022-12-18T11:44:24;0.20;99.90
22706;DHT22;11520;51.198;4.468;2022-12-18T11:47:02;0.30;99.90
22706;DHT22;11520;51.198;4.468;2022-12-18T11:49:34;0.30;99.90
22706;DHT22;11520;51.198;4.468;2022-12-18T11:52:23;0.30;99.90
22706;DHT22;11520;51.198;4.468;2022-12-18T11:54:58;0.10;99.90
22706;DHT22;11520;51.198;4.468;2022-12-18T11:57:52;0.30;99.90
22706;DHT22;11520;51.198;4.468;2022-12-18T12:00:23;0.20;99.90
22706;DHT22;11520;51.198;4.468;2022-12-18T12:08:55;0.00;99.90
22706;DHT22;11520;51.198;4.468;2022-12-18T12:11:49;0.10;99.90
22706;DHT22;11520;51.198;4.468;2022-12-18T12:14:51;-0.10;99.90
22706;DHT22;11520;51.198;4.468;2022-12-18T12:17:40;0.00;99.90
22706;DHT22;11520;51.198;4.468;2022-12-18T12:23:19;0.30;99.90
22706;DHT22;11520;51.198;4.468;2022-12-18T12:32:00;0.50;99.90
22706;DHT22;11520;51.198;4.468;2022-12-18T12:40:26;0.60;99.90
22706;DHT22;11520;51.198;4.468;2022-12-18T12:46:10;0.30;99.90
22706;DHT22;11520;51.198;4.468;2022-12-18T12:48:51;0.50;99.90
22706;DHT22;11520;51.198;4.468;2022-12-18T12:51:19;0.50;99.90
22706;DHT22;11520;51.198;4.468;2022-12-18T12:53:47;0.60;99.90
22706;DHT22;11520;51.198;4.468;2022-12-18T12:56:15;0.70;99.90
22706;DHT22;11520;51.198;4.468;2022-12-18T12:59:05;0.90;99.90
22706;DHT22;11520;51.198;4.468;2022-12-18T13:01:41;0.90;99.90
22706;DHT22;11520;51.198;4.468;2022-12-18T13:04:44;1.00;99.90
22706;DHT22;11520;51.198;4.468;2022-12-18T13:13:05;1.30;99.90
22706;DHT22;11520;51.198;4.468;2022-12-18T13:15:45;1.10;99.90
22706;DHT22;11520;51.198;4.468;2022-12-18T13:18:23;0.80;99.90
22706;DHT22;11520;51.198;4.468;2022-12-18T13:23:37;0.60;99.90
22706;DHT22;11520;51.198;4.468;2022-12-18T13:31:13;1.10;99.90
22706;DHT22;11520;51.198;4.468;2022-12-18T13:33:44;1.00;99.90
22706;DHT22;11520;51.198;4.468;2022-12-18T13:36:27;1.00;99.90
22706;DHT22;11520;51.198;4.468;2022-12-18T13:42:31;1.00;99.90
22706;DHT22;11520;51.198;4.468;2022-12-18T13:45:00;0.80;99.90
22706;DHT22;11520;51.198;4.468;2022-12-18T13:47:33;0.70;99.90
22706;DHT22;11520;51.198;4.468;2022-12-18T13:50:13;0.60;99.90
22706;DHT22;11520;51.198;4.468;2022-12-18T13:52:43;0.50;99.90
22706;DHT22;11520;51.198;4.468;2022-12-18T13:55:17;0.60;99.90
22706;DHT22;11520;51.198;4.468;2022-12-18T13:57:43;0.50;99.90
22706;DHT22;11520;51.198;4.468;2022-12-18T14:02:47;0.60;99.90
22706;DHT22;11520;51.198;4.468;2022-12-18T14:05:34;0.70;99.90
22706;DHT22;11520;51.198;4.468;2022-12-18T14:08:08;0.60;99.90
22706;DHT22;11520;51.198;4.468;2022-12-18T14:10:41;0.50;99.90
22706;DHT22;11520;51.198;4.468;2022-12-18T14:13:10;0.50;99.90
22706;DHT22;11520;51.198;4.468;2022-12-18T14:15:42;0.50;99.90
22706;DHT22;11520;51.198;4.468;2022-12-18T14:18:33;0.50;99.90
22706;DHT22;11520;51.198;4.468;2022-12-18T14:21:03;0.30;99.90
22706;DHT22;11520;51.198;4.468;2022-12-18T14:23:42;0.10;99.90
22706;DHT22;11520;51.198;4.468;2022-12-18T14:26:43;0.10;99.90
22706;DHT22;11520;51.198;4.468;2022-12-18T14:29:23;0.20;99.90
22706;DHT22;11520;51.198;4.468;2022-12-18T14:32:24;0.30;99.90
22706;DHT22;11520;51.198;4.468;2022-12-18T14:34:52;0.30;99.90
22706;DHT22;11520;51.198;4.468;2022-12-18T14:37:26;0.40;99.90
22706;DHT22;11520;51.198;4.468;2022-12-18T14:39:58;0.30;99.90
22706;DHT22;11520;51.198;4.468;2022-12-18T14:42:26;0.30;99.90
22706;DHT22;11520;51.198;4.468;2022-12-18T14:48:00;0.40;99.90
22706;DHT22;11520;51.198;4.468;2022-12-18T14:50:28;0.40;99.90
22706;DHT22;11520;51.198;4.468;2022-12-18T14:52:54;0.50;99.90
22706;DHT22;11520;51.198;4.468;2022-12-18T14:55:21;0.60;99.90
22706;DHT22;11520;51.198;4.468;2022-12-18T14:57:51;0.80;99.90
22706;DHT22;11520;51.198;4.468;2022-12-18T15:00:23;0.80;99.90
22706;DHT22;11520;51.198;4.468;2022-12-18T15:02:53;0.80;99.90
22706;DHT22;11520;51.198;4.468;2022-12-18T15:05:28;0.70;99.90
22706;DHT22;11520;51.198;4.468;2022-12-18T15:07:57;0.70;99.90
22706;DHT22;11520;51.198;4.468;2022-12-18T15:10:31;0.70;99.90
22706;DHT22;11520;51.198;4.468;2022-12-18T15:15:46;0.60;99.90
22706;DHT22;11520;51.198;4.468;2022-12-18T15:18:18;0.50;99.90
22706;DHT22;11520;51.198;4.468;2022-12-18T15:20:53;0.40;99.90
22706;DHT22;11520;51.198;4.468;2022-12-18T15:23:32;0.40;99.90
22706;DHT22;11520;51.198;4.468;2022-12-18T15:26:04;0.40;99.90
22706;DHT22;11520;51.198;4.468;2022-12-18T15:28:46;0.30;99.90
22706;DHT22;11520;51.198;4.468;2022-12-18T15:33:40;0.40;99.90
22706;DHT22;11520;51.198;4.468;2022-12-18T15:36:15;0.30;99.90
22706;DHT22;11520;51.198;4.468;2022-12-18T15:38:41;0.40;99.90
22706;DHT22;11520;51.198;4.468;2022-12-18T15:41:14;0.40;99.90
22706;DHT22;11520;51.198;4.468;2022-12-18T15:43:40;0.40;99.90
22706;DHT22;11520;51.198;4.468;2022-12-18T15:46:16;0.30;99.90
22706;DHT22;11520;51.198;4.468;2022-12-18T15:48:50;0.30;99.90
22706;DHT22;11520;51.198;4.468;2022-12-18T15:51:33;0.30;99.90
22706;DHT22;11520;51.198;4.468;2022-12-18T15:54:01;0.30;99.90
22706;DHT22;11520;51.198;4.468;2022-12-18T15:56:29;0.30;99.90
22706;DHT22;11520;51.198;4.468;2022-12-18T15:59:17;0.40;99.90
22706;DHT22;11520;51.198;4.468;2022-12-18T16:01:48;0.40;99.90
22706;DHT22;11520;51.198;4.468;2022-12-18T16:04:17;0.50;99.90
22706;DHT22;11520;51.198;4.468;2022-12-18T16:06:51;0.50;99.90
22706;DHT22;11520;51.198;4.468;2022-12-18T16:09:17;0.50;99.90
22706;DHT22;11520;51.198;4.468;2022-12-18T16:11:44;0.50;99.90
22706;DHT22;11520;51.198;4.468;2022-12-18T16:16:42;0.50;99.90
22706;DHT22;11520;51.198;4.468;2022-12-18T16:19:10;0.50;99.90
22706;DHT22;11520;51.198;4.468;2022-12-18T16:21:36;0.60;99.90
22706;DHT22;11520;51.198;4.468;2022-12-18T16:24:02;0.60;99.90
22706;DHT22;11520;51.198;4.468;2022-12-18T16:26:28;0.60;99.90
22706;DHT22;11520;51.198;4.468;2022-12-18T16:28:54;0.60;99.90
22706;DHT22;11520;51.198;4.468;2022-12-18T16:31:20;0.70;99.90
22706;DHT22;11520;51.198;4.468;2022-12-18T16:33:46;0.60;99.90
22706;DHT22;11520;51.198;4.468;2022-12-18T16:36:13;0.70;99.90
22706;DHT22;11520;51.198;4.468;2022-12-18T16:38:38;0.70;99.90
22706;DHT22;11520;51.198;4.468;2022-12-18T16:41:18;0.70;99.90
22706;DHT22;11520;51.198;4.468;2022-12-18T16:43:59;0.70;99.90
22706;DHT22;11520;51.198;4.468;2022-12-18T16:46:25;0.70;99.90
22706;DHT22;11520;51.198;4.468;2022-12-18T16:48:51;0.80;99.90
22706;DHT22;11520;51.198;4.468;2022-12-18T16:51:16;0.70;99.90
22706;DHT22;11520;51.198;4.468;2022-12-18T16:53:42;0.80;99.90
22706;DHT22;11520;51.198;4.468;2022-12-18T16:56:08;0.80;99.90
22706;DHT22;11520;51.198;4.468;2022-12-18T16:58:35;0.80;99.90
22706;DHT22;11520;51.198;4.468;2022-12-18T17:01:07;0.80;99.90
22706;DHT22;11520;51.198;4.468;2022-12-18T17:03:33;0.90;99.90
22706;DHT22;11520;51.198;4.468;2022-12-18T17:06:04;0.80;99.90
22706;DHT22;11520;51.198;4.468;2022-12-18T17:08:31;0.80;99.90
22706;DHT22;11520;51.198;4.468;2022-12-18T17:11:03;0.80;99.90
22706;DHT22;11520;51.198;4.468;2022-12-18T17:13:29;0.90;99.90
22706;DHT22;11520;51.198;4.468;2022-12-18T17:16:04;0.90;99.90
22706;DHT22;11520;51.198;4.468;2022-12-18T17:18:32;0.90;99.90
22706;DHT22;11520;51.198;4.468;2022-12-18T17:21:00;0.90;99.90
22706;DHT22;11520;51.198;4.468;2022-12-18T17:23:27;0.90;99.90
22706;DHT22;11520;51.198;4.468;2022-12-18T17:25:58;0.90;99.90
22706;DHT22;11520;51.198;4.468;2022-12-18T17:28:27;0.90;99.90
22706;DHT22;11520;51.198;4.468;2022-12-18T17:30:58;1.00;99.90
22706;DHT22;11520;51.198;4.468;2022-12-18T17:33:24;1.00;99.90
22706;DHT22;11520;51.198;4.468;2022-12-18T17:35:51;1.00;99.90